Nearby METAR Reports

 

EGPN - Dundee/Riverside, United Kingdom
Distance from station: SSE 10km
Updated: 13/08/2022 15:50
NOT Current
Clear
Clear
 Wind from E
Wind: E 7 mph , 11 km/h
Temperature: 20°C
Dew Point: 13°C
Humidity: 64%
Barometer: 1017 hPa
Summary: Clear
Visibility: greater than 7 miles , 10 km
2022/08/13 14:50 EGPN 131450Z 10006KT 060V120 CAVOK 20/13 Q1017
EGQL - Leuchars Raf, United Kingdom
Distance from station: SE 21km
Updated: 14/08/2022 01:20
Overcast
Overcast
 Wind from ENE
Wind: ENE 5 mph , 7 km/h
Temperature: 16°C
Dew Point: 15°C
Humidity: 94%
Barometer: 1014 hPa
Clouds: Overcast
Visibility: 6 miles , 10 km
Cloud details: Overcast 122 m
2022/08/14 00:20 EGQL 140020Z AUTO 06004KT 9999 OVC004/// 16/15 Q1014
 
EGPH - Edinburgh Airpor, United Kingdom
Distance from station: SSW 67km
Updated: 14/08/2022 01:20
Mostly cloudy
Mostly cloudy
 Wind from E
Wind: E 6 mph , 9 km/h
Temperature: 15°C
Dew Point: 14°C
Humidity: 94%
Barometer: 1014 hPa
Clouds: Mostly cloudy
Visibility: 5 miles , 8 km
Cloud details: Mostly cloudy 61 m
2022/08/14 00:20 EGPH 140020Z 09005KT 8000 BKN002 15/14 Q1014
EGPD - Aberdeen/Dyce, United Kingdom
Distance from station: NE 91km
Updated: 14/08/2022 01:20
Clear
Clear
 Wind from SSE
Wind: SSE 3 mph , 6 km/h
Temperature: 13°C
Dew Point: 12°C
Humidity: 94%
Barometer: 1014 hPa
Clouds: Clear
Visibility: 6 miles , 10 km
2022/08/14 00:20 EGPD 140020Z AUTO 16003KT 9999 NCD 13/12 Q1014
 
EGPF - Glasgow Airport, United Kingdom
Distance from station: SW 111km
Updated: 14/08/2022 01:20
Clear
Clear
 Wind from ENE
Wind: ENE 6 mph , 9 km/h
Temperature: 15°C
Dew Point: 12°C
Humidity: 82%
Barometer: 1013 hPa
Clouds: Clear
Visibility: 6 miles , 10 km
2022/08/14 00:20 EGPF 140020Z AUTO 07005KT 9999 NCD 15/12 Q1013
EGPE - Inverness/Dalcro, United Kingdom
Distance from station: NNW 124km
Updated: 14/08/2022 01:20
Mist, Overcast
Mist, Overcast
 Wind from calm
Wind: Calm
Temperature: 13°C
Dew Point: 13°C
Humidity: 100%
Barometer: 1014 hPa
Summary: Mist
Clouds: Overcast
Visibility: 1 mile , 1 km
Cloud details: Overcast 30 m
2022/08/14 00:20 EGPE 140020Z AUTO 00000KT 1200 BR OVC001/// 13/13 Q1014
 
EGQK - Kinloss Raf, United Kingdom
Distance from station: NNW 128km
Updated: 14/08/2022 01:20
Fog, Mostly cloudy
Fog, Mostly cloudy
 Wind from WSW
Wind: WSW 3 mph , 6 km/h
Temperature: 14°C
Dew Point: 13°C
Humidity: 94%
Barometer: 1014 hPa
Summary: Fog
Clouds: Mostly cloudy
Visibility: 0 mile , 1 km
Cloud details: Mostly cloudy 30 m
2022/08/14 00:20 EGQK 140020Z AUTO 25003KT 0550 FG BKN001/// 14/13 Q1014
EGQS - Lossiemouth Raf, United Kingdom
Distance from station: N 133km
Updated: 14/08/2022 00:50
Fog, Overcast
Fog, Overcast
 Wind from W
Wind: W 6 mph , 9 km/h
Temperature: 14°C
Dew Point: 14°C
Humidity: 100%
Barometer: 1014 hPa
Summary: Fog
Clouds: Overcast
Visibility: 0 mile , 1 km
Cloud details: Overcast 0 m
2022/08/13 23:50 EGQS 132350Z 28005KT 0800 FG OVC000 14/14 Q1014 RMK RED
 
EGPK - Prestwick(Civ/Na, United Kingdom
Distance from station: SW 148km
Updated: 14/08/2022 01:20
Clear
Clear
 Wind from NNE
Wind: NNE 3 mph , 6 km/h
Temperature: 15°C
Dew Point: 14°C
Humidity: 94%
Barometer: 1012 hPa
Summary: Clear
Visibility: greater than 7 miles , 10 km
2022/08/14 00:20 EGPK 140020Z 03003KT 300V060 CAVOK 15/14 Q1012
EGQA - Tain Range (saws, United Kingdom
Distance from station: NNW 154km
Updated: 10/08/2022 11:50
NOT Current
Few Clouds
Few Clouds
 Wind from SSW
Wind: SSW 25 mph , 41 km/h
Clouds: Few Clouds
Visibility: 6 miles , 10 km
Cloud details: Few Clouds 1067 m
2022/08/10 10:50 EGQA 101050Z 21022KT 9999 FEW035 22/// Q1023 RMK BLU
 
EGQM - Boulmer, United Kingdom
Distance from station: SE 154km
Updated: 14/08/2022 00:50
Mist, Clear
Mist, Clear
 Wind from W
Wind: W 5 mph , 7 km/h
Temperature: 14°C
Dew Point: 14°C
Humidity: 100%
Barometer: 1014 hPa
Summary: Mist
Clouds: Clear
Visibility: 4 miles , 6 km
2022/08/13 23:50 EGQM 132350Z AUTO 26004KT 6000 BR NCD 14/14 Q1014